createdAt,value
2023-09-11T00:01:09.497Z,67.90
2023-09-11T00:03:44.091Z,67.97
2023-09-11T00:06:13.258Z,67.86
2023-09-11T00:08:42.373Z,68.20
2023-09-11T00:11:11.435Z,67.92
2023-09-11T00:13:40.397Z,68.27
2023-09-11T00:16:09.557Z,68.39
2023-09-11T00:18:39.155Z,68.56
2023-09-11T00:21:08.521Z,68.32
2023-09-11T00:23:37.390Z,68.11
2023-09-11T00:26:06.084Z,68.32
2023-09-11T00:28:34.744Z,68.51
2023-09-11T00:31:03.995Z,68.47
2023-09-11T00:33:32.912Z,68.30
2023-09-11T00:36:02.637Z,68.99
2023-09-11T00:38:31.556Z,68.49
2023-09-11T00:41:00.321Z,68.70
2023-09-11T00:43:32.307Z,69.03
2023-09-11T00:46:02.100Z,68.70
2023-09-11T00:48:31.116Z,69.02
2023-09-11T00:51:01.173Z,68.82
2023-09-11T00:53:30.743Z,68.57
2023-09-11T00:55:59.782Z,68.83
2023-09-11T00:58:28.637Z,69.31
2023-09-11T01:00:57.701Z,69.21
2023-09-11T01:03:27.990Z,69.49
2023-09-11T01:05:57.267Z,69.35
2023-09-11T01:08:26.188Z,69.07
2023-09-11T01:10:57.536Z,69.61
2023-09-11T01:13:26.400Z,69.54
2023-09-11T01:16:03.855Z,69.25
2023-09-11T01:18:43.169Z,69.19
2023-09-11T01:21:47.747Z,69.51
2023-09-11T01:24:41.832Z,69.44
2023-09-11T01:27:37.345Z,69.53
2023-09-11T01:30:08.021Z,69.48
2023-09-11T01:32:38.792Z,69.68
2023-09-11T01:35:08.745Z,69.18
2023-09-11T01:37:37.620Z,69.60
2023-09-11T01:40:09.238Z,69.81
2023-09-11T01:42:44.358Z,69.31
2023-09-11T01:45:15.549Z,69.64
2023-09-11T01:47:48.598Z,69.55
2023-09-11T01:50:19.896Z,70.18
2023-09-11T01:52:53.371Z,69.94
2023-09-11T01:55:22.431Z,70.23
2023-09-11T01:57:51.575Z,70.01
2023-09-11T02:00:20.341Z,70.17
2023-09-11T02:02:55.812Z,70.47
2023-09-11T02:05:25.280Z,70.45
2023-09-11T02:07:54.690Z,70.20
2023-09-11T02:10:23.672Z,70.12
2023-09-11T02:12:55.545Z,69.89
2023-09-11T02:15:24.665Z,70.78
2023-09-11T02:17:55.068Z,70.04
2023-09-11T02:20:24.018Z,69.87
2023-09-11T02:22:56.105Z,70.02
2023-09-11T02:25:25.030Z,70.34
2023-09-11T02:27:55.200Z,70.92
2023-09-11T02:30:24.109Z,70.90
2023-09-11T02:32:53.328Z,70.57
2023-09-11T02:35:22.395Z,70.81
2023-09-11T02:37:51.459Z,71.05
2023-09-11T02:40:20.430Z,70.82
2023-09-11T02:42:49.226Z,71.11
2023-09-11T02:45:18.283Z,71.01
2023-09-11T02:47:47.407Z,70.96
2023-09-11T02:50:16.808Z,70.66
2023-09-11T02:52:47.418Z,70.95
2023-09-11T02:55:16.518Z,71.16
2023-09-11T02:57:47.011Z,70.52
2023-09-11T03:00:16.429Z,70.94
2023-09-11T03:02:46.573Z,71.47
2023-09-11T03:05:15.821Z,70.59
2023-09-11T03:07:45.154Z,71.67
2023-09-11T03:10:14.226Z,71.42
2023-09-11T03:12:43.196Z,71.63
2023-09-11T03:15:15.313Z,71.23
2023-09-11T03:17:48.800Z,71.27
2023-09-11T03:20:18.154Z,71.57
2023-09-11T03:22:47.352Z,71.67
2023-09-11T03:25:17.041Z,71.71
2023-09-11T03:27:47.319Z,71.90
2023-09-11T03:30:16.905Z,71.83
2023-09-11T03:32:48.092Z,71.63
2023-09-11T03:35:17.167Z,72.34
2023-09-11T03:37:46.553Z,72.10
2023-09-11T03:40:15.800Z,71.33
2023-09-11T03:42:45.314Z,72.29
2023-09-11T03:45:15.626Z,71.94
2023-09-11T03:47:47.602Z,71.65
2023-09-11T03:50:16.549Z,71.60
2023-09-11T03:52:55.566Z,72.24
2023-09-11T03:55:24.956Z,71.96
2023-09-11T03:57:54.022Z,72.32
2023-09-11T04:00:23.090Z,71.56
2023-09-11T04:02:52.426Z,72.35
2023-09-11T04:05:21.506Z,72.01
2023-09-11T04:07:52.438Z,72.07
2023-09-11T04:10:21.960Z,71.90
2023-09-11T04:12:51.642Z,72.36
2023-09-11T04:15:20.660Z,71.74
2023-09-11T04:17:49.981Z,71.72
2023-09-11T04:20:19.786Z,72.14
2023-09-11T04:22:50.515Z,72.68
2023-09-11T04:25:21.517Z,72.01
2023-09-11T04:27:50.492Z,71.81
2023-09-11T04:30:21.233Z,71.84
2023-09-11T04:32:52.694Z,72.34
2023-09-11T04:35:24.136Z,72.33
2023-09-11T04:37:53.598Z,72.46
2023-09-11T04:40:23.140Z,72.26
2023-09-11T04:42:53.230Z,72.18
2023-09-11T04:45:22.260Z,72.40
2023-09-11T04:47:51.672Z,72.81
2023-09-11T04:50:20.852Z,72.54
2023-09-11T04:52:50.179Z,72.81
2023-09-11T04:55:19.728Z,72.71
2023-09-11T04:57:49.155Z,72.78
2023-09-11T05:00:19.784Z,72.59
2023-09-11T05:02:51.654Z,72.86
2023-09-11T05:05:20.610Z,72.34
2023-09-11T05:07:50.549Z,72.80
2023-09-11T05:10:19.687Z,73.11
2023-09-11T05:12:50.013Z,73.21
2023-09-11T05:15:21.980Z,72.66
2023-09-11T05:17:53.670Z,72.80
2023-09-11T05:20:22.615Z,72.68
2023-09-11T05:22:51.658Z,72.39
2023-09-11T05:25:21.703Z,72.03
2023-09-11T05:27:51.078Z,72.57
2023-09-11T05:30:21.777Z,72.21
2023-09-11T05:32:53.039Z,72.33
2023-09-11T05:35:22.690Z,71.95
2023-09-11T05:37:51.899Z,72.37
2023-09-11T05:40:21.034Z,72.59
2023-09-11T05:42:50.235Z,72.32
2023-09-11T05:45:19.730Z,72.36
2023-09-11T05:47:54.670Z,72.37
2023-09-11T05:50:23.702Z,72.38
2023-09-11T05:52:55.070Z,72.57
2023-09-11T05:55:23.851Z,72.07
2023-09-11T05:57:52.634Z,72.14
2023-09-11T06:00:21.741Z,72.17
2023-09-11T06:02:53.347Z,72.12
2023-09-11T06:05:25.886Z,72.36
2023-09-11T06:07:54.849Z,72.27
2023-09-11T06:10:24.017Z,72.05
2023-09-11T06:12:53.055Z,72.31
2023-09-11T06:15:21.973Z,72.46
2023-09-11T06:17:53.373Z,72.12
2023-09-11T06:20:22.619Z,72.11
2023-09-11T06:22:52.672Z,71.93
2023-09-11T06:25:21.864Z,71.57
2023-09-11T06:27:52.173Z,71.48
2023-09-11T06:30:21.497Z,72.19
2023-09-11T06:32:50.528Z,71.17
2023-09-11T06:35:19.890Z,69.70
2023-09-11T06:37:51.807Z,67.92
2023-09-11T06:40:20.801Z,67.34
2023-09-11T06:42:49.724Z,66.82
2023-09-11T06:45:18.787Z,66.25
2023-09-11T06:47:50.531Z,66.56
2023-09-11T06:50:21.252Z,64.10
2023-09-11T06:52:50.320Z,62.58
2023-09-11T06:55:19.542Z,62.52
2023-09-11T06:57:57.933Z,61.43
2023-09-11T07:00:27.614Z,60.46
2023-09-11T07:02:56.885Z,60.56
2023-09-11T07:05:27.594Z,60.64
2023-09-11T07:07:56.532Z,60.01
2023-09-11T07:10:38.136Z,60.67
2023-09-11T07:13:11.107Z,60.25
2023-09-11T07:15:40.130Z,60.56
2023-09-11T07:18:09.842Z,60.58
2023-09-11T07:20:38.879Z,61.32
2023-09-11T07:23:08.231Z,61.03
2023-09-11T07:25:37.193Z,59.81
2023-09-11T07:28:13.738Z,59.55
2023-09-11T07:30:43.520Z,59.67
2023-09-11T07:33:12.696Z,59.48
2023-09-11T07:35:41.607Z,59.45
2023-09-11T07:38:12.835Z,59.25
2023-09-11T07:40:42.153Z,59.16
2023-09-11T07:43:11.860Z,59.56
2023-09-11T07:45:40.897Z,59.85
2023-09-11T07:48:09.974Z,59.93
2023-09-11T07:50:39.059Z,59.69
2023-09-11T07:53:08.419Z,59.94
2023-09-11T07:55:38.620Z,59.50
2023-09-11T07:58:10.134Z,59.38
2023-09-11T08:00:38.997Z,58.48
2023-09-11T08:03:08.275Z,57.68
2023-09-11T08:05:37.439Z,58.00
2023-09-11T08:08:07.353Z,57.52
2023-09-11T08:10:36.379Z,56.52
2023-09-11T08:13:05.689Z,56.51
2023-09-11T08:15:34.925Z,55.97
2023-09-11T08:18:07.308Z,56.22
2023-09-11T08:20:36.088Z,55.29
2023-09-11T08:23:05.448Z,53.56
2023-09-11T08:25:35.066Z,52.31
2023-09-11T08:28:07.663Z,49.84
2023-09-11T08:30:37.542Z,49.20
2023-09-11T08:33:15.490Z,47.33
2023-09-11T08:35:45.033Z,46.58
2023-09-11T08:38:13.805Z,46.12
2023-09-11T08:40:44.112Z,45.55
2023-09-11T08:43:12.903Z,44.16
2023-09-11T08:45:42.467Z,43.59
2023-09-11T08:48:16.327Z,43.25
2023-09-11T08:50:49.375Z,42.80
2023-09-11T08:53:20.157Z,43.26
2023-09-11T08:55:50.221Z,43.43
2023-09-11T08:58:22.636Z,42.95
2023-09-11T09:00:51.781Z,43.48
2023-09-11T09:03:21.782Z,43.06
2023-09-11T09:05:51.339Z,43.24
2023-09-11T09:08:21.216Z,43.34
2023-09-11T09:10:50.665Z,43.60
2023-09-11T09:13:20.823Z,43.51
2023-09-11T09:15:49.776Z,43.25
2023-09-11T09:18:18.953Z,43.31
2023-09-11T09:20:48.243Z,43.98
2023-09-11T09:23:18.264Z,43.89
2023-09-11T09:25:47.060Z,43.93
2023-09-11T09:28:31.076Z,43.31
2023-09-11T09:31:04.054Z,43.26
2023-09-11T09:33:34.445Z,43.10
2023-09-11T09:36:04.032Z,43.28
2023-09-11T09:38:34.126Z,43.38
2023-09-11T09:41:11.097Z,43.03
2023-09-11T09:43:40.111Z,42.58
2023-09-11T09:46:20.608Z,43.07
2023-09-11T09:48:49.667Z,43.07
2023-09-11T09:51:19.229Z,43.01
2023-09-11T09:53:52.814Z,42.49
2023-09-11T09:56:21.933Z,42.70
2023-09-11T09:58:51.995Z,42.38
2023-09-11T10:01:21.898Z,42.78
2023-09-11T10:03:52.631Z,42.91
2023-09-11T10:06:27.519Z,42.71
2023-09-11T10:09:07.413Z,42.63
2023-09-11T10:11:37.477Z,41.83
2023-09-11T10:14:08.588Z,41.64
2023-09-11T10:16:38.305Z,41.17
2023-09-11T10:19:07.632Z,41.41
2023-09-11T10:21:36.812Z,41.32
2023-09-11T10:24:09.422Z,41.05
2023-09-11T10:26:41.577Z,41.12
2023-09-11T10:29:17.041Z,40.54
2023-09-11T10:31:53.817Z,40.34
2023-09-11T10:34:24.559Z,40.18
2023-09-11T10:36:59.677Z,40.21
2023-09-11T10:39:28.739Z,40.14
2023-09-11T10:41:57.656Z,39.91
2023-09-11T10:44:29.696Z,39.89
2023-09-11T10:47:05.440Z,39.42
2023-09-11T10:49:38.892Z,39.71
2023-09-11T10:52:09.487Z,39.27
2023-09-11T10:54:38.565Z,39.15
2023-09-11T10:57:07.947Z,39.15
2023-09-11T10:59:37.164Z,39.32
2023-09-11T11:02:06.841Z,38.80
2023-09-11T11:04:36.374Z,38.68
2023-09-11T11:07:08.925Z,38.40
2023-09-11T11:09:42.169Z,38.14
2023-09-11T11:12:15.813Z,38.13
2023-09-11T11:15:13.401Z,38.37
2023-09-11T11:17:43.045Z,37.95
2023-09-11T11:20:12.750Z,37.77
2023-09-11T11:22:42.691Z,37.83
2023-09-11T11:25:13.045Z,37.96
2023-09-11T11:27:43.035Z,37.91
2023-09-11T11:30:13.429Z,37.76
2023-09-11T11:32:43.097Z,37.68
2023-09-11T11:35:16.458Z,37.62
2023-09-11T11:37:50.587Z,37.51
2023-09-11T11:40:21.998Z,37.75
2023-09-11T11:42:52.442Z,37.11
2023-09-11T11:45:21.871Z,37.24
2023-09-11T11:47:52.665Z,37.10
2023-09-11T11:50:22.083Z,37.36
2023-09-11T11:52:51.861Z,37.28
2023-09-11T11:55:24.979Z,37.16
2023-09-11T11:57:55.146Z,37.33
2023-09-11T12:00:24.241Z,37.33
2023-09-11T12:03:03.887Z,37.24
2023-09-11T12:05:33.384Z,37.58
2023-09-11T12:08:04.464Z,37.43
2023-09-11T12:10:33.797Z,37.69
2023-09-11T12:13:03.654Z,37.44
2023-09-11T12:15:32.912Z,37.42
2023-09-11T12:18:04.176Z,37.25
2023-09-11T12:20:33.814Z,36.99
2023-09-11T12:23:04.355Z,37.63
2023-09-11T12:25:33.493Z,37.67
2023-09-11T12:28:04.953Z,37.79
2023-09-11T12:30:34.464Z,37.83
2023-09-11T12:33:07.434Z,37.79
2023-09-11T12:35:35.829Z,37.92
2023-09-11T12:38:09.914Z,38.19
2023-09-11T12:40:39.661Z,38.07
2023-09-11T12:43:11.679Z,37.96
2023-09-11T12:45:41.112Z,38.35
2023-09-11T12:48:10.934Z,38.25
2023-09-11T12:50:42.298Z,38.07
2023-09-11T12:53:12.191Z,38.25
2023-09-11T12:55:41.408Z,38.24
2023-09-11T12:58:10.846Z,38.16
2023-09-11T13:12:47.011Z,38.85
2023-09-11T13:15:16.883Z,38.63
2023-09-11T13:17:47.242Z,38.86
2023-09-11T13:20:16.512Z,38.90
2023-09-11T13:22:46.077Z,38.92
2023-09-11T13:25:16.116Z,38.78
2023-09-11T13:27:45.432Z,38.82
2023-09-11T13:30:15.140Z,38.80
2023-09-11T13:32:46.736Z,38.85
2023-09-11T13:35:16.617Z,39.02
2023-09-11T13:37:45.857Z,39.11
2023-09-11T13:40:15.236Z,39.22
2023-09-11T13:42:49.533Z,39.21
2023-09-11T13:45:19.873Z,39.39
2023-09-11T13:47:50.088Z,39.40
2023-09-11T13:50:19.418Z,39.36
2023-09-11T13:52:48.853Z,39.31
2023-09-11T13:55:17.873Z,39.51
2023-09-11T13:57:48.372Z,39.60
2023-09-11T14:00:19.799Z,39.38
2023-09-11T14:02:49.203Z,39.62
2023-09-11T14:05:19.796Z,39.47
2023-09-11T14:07:50.534Z,39.74
2023-09-11T14:10:19.646Z,40.02
2023-09-11T14:12:48.880Z,40.00
2023-09-11T14:15:21.038Z,40.07
2023-09-11T14:17:50.524Z,40.27
2023-09-11T14:20:19.840Z,40.14
2023-09-11T14:22:51.267Z,40.11
2023-09-11T14:25:20.071Z,40.43
2023-09-11T14:27:49.283Z,40.33
2023-09-11T14:30:18.711Z,40.69
2023-09-11T14:32:50.915Z,40.77
2023-09-11T14:35:20.775Z,40.82
2023-09-11T14:37:50.052Z,40.85
2023-09-11T14:40:19.167Z,40.96
2023-09-11T14:42:49.052Z,41.01
2023-09-11T14:45:18.215Z,40.89
2023-09-11T14:47:49.059Z,41.11
2023-09-11T14:50:18.464Z,40.79
2023-09-11T14:52:50.824Z,41.00
2023-09-11T14:55:23.441Z,40.98
2023-09-11T14:57:54.109Z,40.92
2023-09-11T15:00:23.462Z,41.16
2023-09-11T15:02:54.393Z,41.10
2023-09-11T15:05:23.842Z,41.23
2023-09-11T15:07:56.767Z,41.19
2023-09-11T15:10:25.772Z,41.53
2023-09-11T15:12:54.731Z,41.34
2023-09-11T15:15:23.933Z,41.44
2023-09-11T15:17:53.058Z,41.72
2023-09-11T15:20:21.910Z,41.79
2023-09-11T15:22:50.787Z,41.81
2023-09-11T15:25:19.826Z,41.84
2023-09-11T15:27:50.900Z,41.92
2023-09-11T15:30:23.166Z,41.85
2023-09-11T15:32:52.289Z,42.03
2023-09-11T15:35:21.241Z,42.11
2023-09-11T15:37:50.062Z,42.40
2023-09-11T15:40:18.751Z,42.46
2023-09-11T15:42:52.025Z,42.51
2023-09-11T15:45:21.259Z,42.65
2023-09-11T15:47:50.493Z,42.75
2023-09-11T15:50:20.691Z,42.84
2023-09-11T15:52:49.869Z,43.00
2023-09-11T15:55:18.570Z,43.06
2023-09-11T15:57:54.709Z,43.36
2023-09-11T16:00:25.588Z,43.32
2023-09-11T16:02:54.896Z,43.84
2023-09-11T16:05:23.873Z,44.00
2023-09-11T16:07:52.804Z,44.16
2023-09-11T16:10:21.958Z,44.70
2023-09-11T16:12:50.921Z,44.92
2023-09-11T16:15:20.344Z,45.08
2023-09-11T16:17:49.910Z,45.11
2023-09-11T16:20:18.805Z,45.52
2023-09-11T16:22:50.783Z,45.94
2023-09-11T16:25:22.539Z,46.03
2023-09-11T16:27:51.355Z,46.72
2023-09-11T16:30:22.261Z,46.81
2023-09-11T16:32:53.216Z,47.23
2023-09-11T16:35:22.713Z,47.44
2023-09-11T16:37:51.756Z,47.41
2023-09-11T16:40:20.998Z,48.27
2023-09-11T16:42:52.691Z,48.00
2023-09-11T16:45:21.801Z,48.33
2023-09-11T16:47:50.895Z,48.55
2023-09-11T16:50:22.080Z,48.60
2023-09-11T16:52:50.902Z,48.54
2023-09-11T16:55:20.166Z,48.95
2023-09-11T16:57:49.262Z,49.12
2023-09-11T17:00:21.343Z,49.24
2023-09-11T17:02:53.495Z,49.63
2023-09-11T17:05:22.464Z,49.81
2023-09-11T17:07:51.363Z,49.64
2023-09-11T17:10:20.569Z,50.24
2023-09-11T17:12:52.915Z,50.06
2023-09-11T17:15:22.012Z,50.80
2023-09-11T17:17:50.993Z,50.60
2023-09-11T17:20:21.704Z,51.03
2023-09-11T17:22:52.730Z,51.18
2023-09-11T17:25:22.984Z,51.08
2023-09-11T17:27:52.200Z,51.13
2023-09-11T17:30:21.184Z,51.33
2023-09-11T17:32:50.110Z,51.97
2023-09-11T17:35:20.106Z,51.99
2023-09-11T17:37:51.810Z,51.77
2023-09-11T17:40:20.689Z,51.96
2023-09-11T17:42:49.938Z,52.11
2023-09-11T17:45:19.280Z,52.41
2023-09-11T17:47:49.939Z,52.90
2023-09-11T17:50:18.892Z,52.94
2023-09-11T17:52:53.696Z,52.94
2023-09-11T17:55:22.683Z,53.08
2023-09-11T17:57:51.962Z,53.08
2023-09-11T18:00:22.407Z,53.72
2023-09-11T18:02:51.721Z,53.60
2023-09-11T18:05:22.574Z,53.44
2023-09-11T18:07:51.687Z,53.65
2023-09-11T18:10:20.880Z,54.25
2023-09-11T18:12:49.957Z,54.38
2023-09-11T18:15:18.914Z,54.05
2023-09-11T18:17:48.109Z,54.18
2023-09-11T18:20:18.198Z,54.30
2023-09-11T18:22:50.209Z,54.68
2023-09-11T18:25:21.071Z,54.92
2023-09-11T18:27:50.186Z,55.13
2023-09-11T18:30:19.776Z,55.24
2023-09-11T18:32:52.721Z,55.22
2023-09-11T18:35:21.785Z,55.17
2023-09-11T18:37:53.985Z,55.84
2023-09-11T18:40:23.079Z,55.91
2023-09-11T18:42:54.570Z,55.72
2023-09-11T18:45:29.025Z,56.21
2023-09-11T18:47:58.178Z,56.40
2023-09-11T18:50:27.486Z,56.66
2023-09-11T18:52:59.379Z,56.71
2023-09-11T18:55:31.777Z,56.55
2023-09-11T18:58:00.725Z,56.92
2023-09-11T19:00:32.583Z,56.79
2023-09-11T19:03:11.401Z,56.94
2023-09-11T19:05:40.898Z,57.68
2023-09-11T19:08:13.545Z,57.37
2023-09-11T19:10:43.219Z,57.58
2023-09-11T19:13:12.256Z,57.53
2023-09-11T19:15:41.758Z,57.40
2023-09-11T19:18:10.644Z,58.00
2023-09-11T19:20:40.064Z,58.16
2023-09-11T19:23:09.917Z,58.19
2023-09-11T19:25:39.439Z,58.54
2023-09-11T19:28:09.245Z,58.31
2023-09-11T19:30:38.788Z,58.64
2023-09-11T19:33:08.588Z,58.39
2023-09-11T19:35:38.449Z,58.56
2023-09-11T19:38:08.141Z,59.00
2023-09-11T19:40:38.626Z,58.87
2023-09-11T19:43:07.974Z,59.48
2023-09-11T19:45:37.431Z,59.49
2023-09-11T19:48:10.587Z,59.61
2023-09-11T19:50:39.878Z,59.83
2023-09-11T19:53:11.897Z,59.50
2023-09-11T19:55:41.613Z,59.56
2023-09-11T19:58:10.649Z,59.99
2023-09-11T20:00:43.075Z,59.91
2023-09-11T20:03:14.444Z,60.32
2023-09-11T20:05:44.169Z,60.25
2023-09-11T20:08:17.210Z,60.72
2023-09-11T20:10:45.977Z,60.50
2023-09-11T20:13:14.881Z,60.72
2023-09-11T20:15:43.737Z,60.59
2023-09-11T20:18:12.803Z,61.37
2023-09-11T20:20:42.956Z,61.17
2023-09-11T20:23:12.433Z,61.32
2023-09-11T20:25:41.271Z,61.91
2023-09-11T20:28:10.265Z,61.47
2023-09-11T20:30:39.078Z,61.87
2023-09-11T20:33:11.423Z,61.92
2023-09-11T20:35:43.770Z,61.90
2023-09-11T20:38:13.037Z,62.04
2023-09-11T20:40:42.751Z,62.12
2023-09-11T20:43:11.692Z,62.13
2023-09-11T20:45:43.271Z,62.01
2023-09-11T20:48:12.286Z,62.33
2023-09-11T20:50:41.804Z,62.46
2023-09-11T20:53:15.789Z,62.62
2023-09-11T20:55:48.711Z,62.94
2023-09-11T20:58:25.352Z,63.02
2023-09-11T21:00:54.329Z,63.13
2023-09-11T21:03:27.591Z,63.02
2023-09-11T21:05:57.208Z,63.38
2023-09-11T21:08:26.446Z,63.15
2023-09-11T21:10:56.071Z,63.22
2023-09-11T21:13:26.585Z,63.25
2023-09-11T21:15:56.821Z,63.55
2023-09-11T21:18:26.459Z,63.49
2023-09-11T21:20:55.756Z,63.29
2023-09-11T21:23:26.080Z,63.60
2023-09-11T21:25:56.712Z,63.82
2023-09-11T21:28:31.391Z,63.98
2023-09-11T21:31:00.400Z,64.22
2023-09-11T21:33:32.252Z,64.21
2023-09-11T21:36:01.348Z,64.50
2023-09-11T21:38:30.720Z,64.57
2023-09-11T21:40:59.713Z,64.59
2023-09-11T21:43:28.714Z,64.61
2023-09-11T21:45:57.649Z,64.53
2023-09-11T21:48:26.452Z,64.99
2023-09-11T21:50:55.828Z,65.03
2023-09-11T21:53:27.246Z,65.26
2023-09-11T21:55:58.273Z,65.38
2023-09-11T21:58:27.250Z,65.50
2023-09-11T22:00:56.097Z,65.45
2023-09-11T22:03:26.135Z,65.29
2023-09-11T22:05:55.027Z,65.23
2023-09-11T22:08:26.786Z,65.57
2023-09-11T22:10:59.970Z,65.44
2023-09-11T22:13:29.471Z,65.63
2023-09-11T22:15:58.582Z,65.82
2023-09-11T22:18:27.637Z,65.84
2023-09-11T22:20:57.454Z,66.06
2023-09-11T22:23:26.366Z,66.09
2023-09-11T22:25:55.625Z,66.12
2023-09-11T22:28:24.399Z,65.66
2023-09-11T22:30:53.202Z,65.69
2023-09-11T22:33:22.496Z,66.00
2023-09-11T22:35:54.456Z,65.91
2023-09-11T22:38:23.674Z,66.30
2023-09-11T22:40:53.298Z,66.01
2023-09-11T22:43:22.139Z,66.26
2023-09-11T22:45:50.963Z,66.57
2023-09-11T22:48:19.846Z,66.49
2023-09-11T22:50:48.727Z,66.32
2023-09-11T22:53:17.560Z,66.65
2023-09-11T22:55:46.308Z,66.98
2023-09-11T22:58:15.289Z,66.61
2023-09-11T23:00:44.190Z,67.04
2023-09-11T23:03:13.350Z,66.69
2023-09-11T23:05:42.269Z,67.16
2023-09-11T23:08:13.326Z,67.24
2023-09-11T23:10:42.268Z,66.99
2023-09-11T23:13:11.112Z,67.41
2023-09-11T23:15:40.257Z,67.00
2023-09-11T23:18:09.769Z,67.29
2023-09-11T23:20:38.928Z,67.21
2023-09-11T23:23:07.739Z,67.31
2023-09-11T23:25:36.863Z,66.91
2023-09-11T23:28:06.904Z,67.12
2023-09-11T23:30:37.433Z,67.54
2023-09-11T23:33:07.494Z,67.46
2023-09-11T23:35:39.580Z,67.23
2023-09-11T23:38:08.583Z,67.40
2023-09-11T23:40:37.892Z,67.75
2023-09-11T23:43:09.275Z,67.94
2023-09-11T23:45:38.065Z,67.37
2023-09-11T23:48:10.308Z,67.52
2023-09-11T23:50:46.521Z,68.09
2023-09-11T23:53:14.792Z,67.92
2023-09-11T23:55:43.630Z,67.70
2023-09-11T23:58:15.424Z,68.14
